Budd Lake, New Jersey
Current Conditions -  °F | °C
As of 2:45 PM on Monday 24 Nov 2014 (Local Time) from KMMU Reporting Station
Broken Clouds Broken Clouds  
Wind Chill: 72°   Ceiling: 3500
Heat Index: 72°   Visibility: 20mi
Dew Point: 57°   Wind: 15mph
Humidity: 60%   Direction: 220°SW
Pressure: 29.57"   Gusts: 30mph
Location:  40.86°N, 74.73°W
Report Text: KMMU 241945Z 22013G26KT 20SM BKN035 22/14 A2957
Loading
Personal Weather Stations






























Interactive Weather Map New forecast layout! Learn more

10-Day Weather Forecast

Advertisements
Track Severe Weather on mobile